地図

経路データ

SID SEASON NUMBER BASIN SUBBASIN NAME ISO_TIME NATURE LAT LON WMO_WIND WMO_PRES WMO_AGENCY TRACK_TYPE DIST2LAND LANDFALL IFLAG USA_AGENCY USA_ATCF_ID USA_LAT USA_LON USA_RECORD USA_STATUS USA_WIND USA_PRES USA_SSHS USA_R34_NE USA_R34_SE USA_R34_SW USA_R34_NW USA_R50_NE USA_R50_SE USA_R50_SW USA_R50_NW USA_R64_NE USA_R64_SE USA_R64_SW USA_R64_NW USA_POCI USA_ROCI USA_RMW USA_EYE TOKYO_LAT TOKYO_LON TOKYO_GRADE TOKYO_WIND TOKYO_PRES TOKYO_R50_DIR TOKYO_R50_LONG TOKYO_R50_SHORT TOKYO_R30_DIR TOKYO_R30_LONG TOKYO_R30_SHORT TOKYO_LAND CMA_LAT CMA_LON CMA_CAT CMA_WIND CMA_PRES HKO_LAT HKO_LON HKO_CAT HKO_WIND HKO_PRES NEWDELHI_LAT NEWDELHI_LON NEWDELHI_GRADE NEWDELHI_WIND NEWDELHI_PRES NEWDELHI_CI NEWDELHI_DP NEWDELHI_POCI REUNION_LAT REUNION_LON REUNION_TYPE REUNION_WIND REUNION_PRES REUNION_TNUM REUNION_CI REUNION_RMW REUNION_R34_NE REUNION_R34_SE REUNION_R34_SW REUNION_R34_NW REUNION_R50_NE REUNION_R50_SE REUNION_R50_SW REUNION_R50_NW REUNION_R64_NE REUNION_R64_SE REUNION_R64_SW REUNION_R64_NW BOM_LAT BOM_LON BOM_TYPE BOM_WIND BOM_PRES BOM_TNUM BOM_CI BOM_RMW BOM_R34_NE BOM_R34_SE BOM_R34_SW BOM_R34_NW BOM_R50_NE BOM_R50_SE BOM_R50_SW BOM_R50_NW BOM_R64_NE BOM_R64_SE BOM_R64_SW BOM_R64_NW BOM_ROCI BOM_POCI BOM_EYE BOM_POS_METHOD BOM_PRES_METHOD NADI_LAT NADI_LON NADI_CAT NADI_WIND NADI_PRES WELLINGTON_LAT WELLINGTON_LON WELLINGTON_WIND WELLINGTON_PRES DS824_LAT DS824_LON DS824_STAGE DS824_WIND DS824_PRES TD9636_LAT TD9636_LON TD9636_STAGE TD9636_WIND TD9636_PRES TD9635_LAT TD9635_LON TD9635_WIND TD9635_PRES TD9635_ROCI NEUMANN_LAT NEUMANN_LON NEUMANN_CLASS NEUMANN_WIND NEUMANN_PRES MLC_LAT MLC_LON MLC_CLASS MLC_WIND MLC_PRES USA_GUST BOM_GUST BOM_GUST_PER REUNION_GUST REUNION_GUST_PER USA_SEAHGT USA_SEARAD_NE USA_SEARAD_SE USA_SEARAD_SW USA_SEARAD_NW STORM_SPEED STORM_DIR
1983254N30296 1983 56 NA NA CHANTAL 1983-09-10 12:00:00 TS 30.2000 -64.4000 25 1010 hurdat_atl main 1206 1195 O_____________ hurdat_atl AL051983 30.2000 -64.4000 TD 25 1010 -1 8 24
1983254N30296 1983 56 NA NA CHANTAL 1983-09-10 15:00:00 TS 30.5425 -64.2250 main 1203 1191 P_____________ AL051983 30.5425 -64.2250 TD 27 1009 -1 8 26
1983254N30296 1983 56 NA NA CHANTAL 1983-09-10 18:00:00 TS 30.9000 -64.0000 30 1008 hurdat_atl main 1196 1191 O_____________ hurdat_atl AL051983 30.9000 -64.0000 TD 30 1008 -1 9 32
1983254N30296 1983 56 NA NA CHANTAL 1983-09-10 21:00:00 TS 31.2724 -63.6876 main 1200 1200 P_____________ AL051983 31.2724 -63.6876 TD 32 1006 -1 9 41
1983254N30296 1983 56 NA NA CHANTAL 1983-09-11 00:00:00 TS 31.6000 -63.3000 35 1005 hurdat_atl main 1218 1218 O_____________ hurdat_atl AL051983 31.6000 -63.3000 TS 35 1005 0 9 51
1983254N30296 1983 56 NA NA CHANTAL 1983-09-11 03:00:00 TS 31.8222 -62.8870 main 1243 1243 P_____________ AL051983 31.8222 -62.8870 TS 40 1002 0 9 62
1983254N30296 1983 56 NA NA CHANTAL 1983-09-11 06:00:00 TS 32.0000 -62.4000 45 1000 hurdat_atl main 1272 1272 O_____________ hurdat_atl AL051983 32.0000 -62.4000 TS 45 1000 0 10 67
1983254N30296 1983 56 NA NA CHANTAL 1983-09-11 09:00:00 TS 32.2000 -61.8224 main 1282 1277 P_____________ AL051983 32.2000 -61.8224 TS 50 998 0 11 69
1983254N30296 1983 56 NA NA CHANTAL 1983-09-11 12:00:00 TS 32.4000 -61.2000 55 996 hurdat_atl main 1286 1275 O_____________ hurdat_atl AL051983 32.4000 -61.2000 TS 55 996 0 11 69
1983254N30296 1983 56 NA NA CHANTAL 1983-09-11 15:00:00 TS 32.6073 -60.5924 main 1280 1271 P_____________ AL051983 32.6073 -60.5924 TS 60 995 0 11 68
1983254N30296 1983 56 NA NA CHANTAL 1983-09-11 18:00:00 TS 32.8000 -60.0000 65 994 hurdat_atl main 1277 1273 O_____________ hurdat_atl AL051983 32.8000 -60.0000 HU 65 994 1 10 71
1983254N30296 1983 56 NA NA CHANTAL 1983-09-11 21:00:00 TS 32.9419 -59.4567 main 1283 1276 P_____________ AL051983 32.9419 -59.4567 HU 65 994 1 10 72
1983254N30296 1983 56 NA NA CHANTAL 1983-09-12 00:00:00 TS 33.1000 -58.9000 65 994 hurdat_atl main 1283 1279 O_____________ hurdat_atl AL051983 33.1000 -58.9000 HU 65 994 1 11 68
1983254N30296 1983 56 NA NA CHANTAL 1983-09-12 03:00:00 TS 33.3424 -58.2652 main 1287 1279 P_____________ AL051983 33.3424 -58.2652 HU 65 994 1 12 65
1983254N30296 1983 56 NA NA CHANTAL 1983-09-12 06:00:00 TS 33.6000 -57.6000 65 994 hurdat_atl main 1287 1286 O_____________ hurdat_atl AL051983 33.6000 -57.6000 HU 65 994 1 12 68
1983254N30296 1983 56 NA NA CHANTAL 1983-09-12 09:00:00 TS 33.8077 -56.9123 main 1300 1295 P_____________ AL051983 33.8077 -56.9123 HU 65 994 1 12 70
1983254N30296 1983 56 NA NA CHANTAL 1983-09-12 12:00:00 TS 34.0000 -56.3000 65 994 hurdat_atl main 1311 1301 O_____________ hurdat_atl AL051983 34.0000 -56.3000 HU 65 994 1 10 66
1983254N30296 1983 56 NA NA CHANTAL 1983-09-12 15:00:00 TS 34.1995 -55.8472 main 1304 1289 P_____________ AL051983 34.1995 -55.8472 HU 65 994 1 8 59
1983254N30296 1983 56 NA NA CHANTAL 1983-09-12 18:00:00 TS 34.4000 -55.5000 65 994 hurdat_atl main 1292 1281 O_____________ hurdat_atl AL051983 34.4000 -55.5000 HU 65 994 1 7 55
1983254N30296 1983 56 NA NA CHANTAL 1983-09-12 21:00:00 TS 34.5924 -55.1698 main 1281 1267 P_____________ AL051983 34.5924 -55.1698 HU 60 997 0 6 51
1983254N30296 1983 56 NA NA CHANTAL 1983-09-13 00:00:00 TS 34.8000 -54.9000 55 1000 hurdat_atl main 1270 1257 O_____________ hurdat_atl AL051983 34.8000 -54.9000 TS 55 1000 0 6 42
1983254N30296 1983 56 NA NA CHANTAL 1983-09-13 03:00:00 TS 35.0349 -54.6773 main 1257 1234 P_____________ AL051983 35.0349 -54.6773 TS 55 1000 0 6 33
1983254N30296 1983 56 NA NA CHANTAL 1983-09-13 06:00:00 TS 35.3000 -54.5000 55 1000 hurdat_atl main 1234 1207 O_____________ hurdat_atl AL051983 35.3000 -54.5000 TS 55 1000 0 6 25
1983254N30296 1983 56 NA NA CHANTAL 1983-09-13 09:00:00 TS 35.6074 -54.3424 main 1211 1185 P_____________ AL051983 35.6074 -54.3424 TS 50 1002 0 6 22
1983254N30296 1983 56 NA NA CHANTAL 1983-09-13 12:00:00 TS 35.9000 -54.2000 45 1005 hurdat_atl main 1185 1168 O_____________ hurdat_atl AL051983 35.9000 -54.2000 TS 45 1005 0 6 27
1983254N30296 1983 56 NA NA CHANTAL 1983-09-13 15:00:00 TS 36.1075 -54.0349 main 1168 1146 P_____________ AL051983 36.1075 -54.0349 TS 42 1005 0 5 31
1983254N30296 1983 56 NA NA CHANTAL 1983-09-13 18:00:00 TS 36.3000 -53.9000 40 1005 hurdat_atl main 1146 1123 O_____________ hurdat_atl AL051983 36.3000 -53.9000 TS 40 1005 0 5 22
1983254N30296 1983 56 NA NA CHANTAL 1983-09-13 21:00:00 TS 36.5350 -53.8274 main 1123 1090 P_____________ AL051983 36.5350 -53.8274 TS 40 1005 0 5 9
1983254N30296 1983 56 NA NA CHANTAL 1983-09-14 00:00:00 TS 36.8000 -53.8000 40 1005 hurdat_atl main 1090 1067 O_____________ hurdat_atl AL051983 36.8000 -53.8000 TS 40 1005 0 5 5
1983254N30296 1983 56 NA NA CHANTAL 1983-09-14 03:00:00 TS 37.0400 -53.7924 main 1067 1023 P_____________ AL051983 37.0400 -53.7924 TS 40 1005 0 6 0
1983254N30296 1983 56 NA NA CHANTAL 1983-09-14 06:00:00 TS 37.4000 -53.8000 40 1006 hurdat_atl main 1023 956 O_____________ hurdat_atl AL051983 37.4000 -53.8000 TS 40 1006 0 10 355
1983254N30296 1983 56 NA NA CHANTAL 1983-09-14 09:00:00 TS 38.0345 -53.8955 main 956 878 P_____________ AL051983 38.0345 -53.8955 TS 37 1007 0 13 1
1983254N30296 1983 56 NA NA CHANTAL 1983-09-14 12:00:00 TS 38.7000 -53.8000 35 1008 hurdat_atl main 878 834 O_____________ hurdat_atl AL051983 38.7000 -53.8000 TS 35 1008 0 12 24
1983254N30296 1983 56 NA NA CHANTAL 1983-09-14 15:00:00 TS 39.1300 -53.2847 main 834 790 P_____________ AL051983 39.1300 -53.2847 TS 35 1008 0 13 52
1983254N30296 1983 56 NA NA CHANTAL 1983-09-14 18:00:00 TS 39.5000 -52.5000 35 1008 hurdat_atl main 791 754 O_____________ hurdat_atl AL051983 39.5000 -52.5000 TS 35 1008 0 15 58
1983254N30296 1983 56 NA NA CHANTAL 1983-09-14 21:00:00 TS 39.9125 -51.6433 main 756 715 P_____________ AL051983 39.9125 -51.6433 TS 32 1008 -1 16 57
1983254N30296 1983 56 NA NA CHANTAL 1983-09-15 00:00:00 TS 40.4000 -50.7000 30 1009 hurdat_atl main 717 679 O_____________ hurdat_atl AL051983 40.4000 -50.7000 TD 30 1009 -1 18 53
1983254N30296 1983 56 NA NA CHANTAL 1983-09-15 03:00:00 TS 41.0137 -49.7520 main 679 642 P_____________ AL051983 41.0137 -49.7520 TD 30 1009 -1 19 48
1983254N30296 1983 56 NA NA CHANTAL 1983-09-15 06:00:00 TS 41.7000 -48.8000 30 1009 hurdat_atl main 647 O_____________ hurdat_atl AL051983 41.7000 -48.8000 TD 30 1009 -1 20 46

IBTrACS Databaseについて

本データベースは、米国NOAAが公開する1842年以降の世界の熱帯低気圧のベストトラックデータアーカイブInternational Best Track Archive for Climate Stewardship (IBTrACS)を、ウェブで閲覧しやすい形式に変換したものです。

最終更新日:2021-12-03